Time;durP1;ratioP1;P1;durP2;ratioP2;P2;SDS_P1;SDS_P2;PMS_P1;PMS_P2;Temp;Humidity;BMP_temperature;BMP_pressure;BME280_temperature;BME280_humidity;BME280_pressure;Samples;Min_cycle;Max_cycle;Signal;HPM_P1;HPM_P2
2022/11/09 00:02:05;;;;;;;;;;;;;;;13.60;65.20;99129.09;4487717;32;19972;-87
2022/11/09 00:04:30;;;;;;;;;;;;;;;13.57;65.30;99122.16;4486783;32;33092;-87
2022/11/09 00:06:55;;;;;;;;;;;;;;;13.62;65.11;99121.91;4487717;32;19995;-84
2022/11/09 00:09:20;;;;;;;;;;;;;;;13.60;65.23;99123.78;4487070;32;25492;-84
2022/11/09 00:11:46;;;;;;;;;;;;;;;13.59;65.26;99124.72;4473309;32;20026;-83
2022/11/09 00:14:12;;;;;;;;;;;;;;;13.60;65.28;99128.22;4487696;32;19976;-85
2022/11/09 00:16:38;;;;;;;;;;;;;;;13.57;65.27;99131.91;4487609;32;19975;-85
2022/11/09 00:19:03;;;;;;;;;;;;;;;13.60;65.15;99125.56;4486976;32;27132;-84
2022/11/09 00:21:28;;;;;;;;;;;;;;;13.61;65.13;99119.34;4486950;32;27195;-84
2022/11/09 00:23:53;;;;;;;;;;;;;;;13.59;65.20;99116.78;4487563;32;20002;-88
2022/11/09 00:26:19;;;;;;;;;;;;;;;13.61;65.11;99114.03;4487548;32;19967;-89
2022/11/09 00:28:44;;;;;;;;;;;;;;;13.56;65.14;99115.19;4487547;32;19995;-89
2022/11/09 00:31:10;;;;;;;;;;;;;;;13.57;65.07;99111.56;4486650;32;35922;-88
2022/11/09 00:33:35;;;;;;;;;;;;;;;13.57;65.06;99119.50;4487502;32;20353;-89
2022/11/09 00:36:06;;;;;;;;;;;;;;;13.59;64.93;99118.59;4487147;32;19976;-88
2022/11/09 00:38:31;;;;;;;;;;;;;;;13.55;65.02;99125.84;4473055;32;19977;-88
2022/11/09 00:40:59;;;;;;;;;;;;;;;13.52;65.14;99128.69;4487326;32;19968;-88
2022/11/09 00:43:24;;;;;;;;;;;;;;;13.53;65.01;99118.00;4487531;32;20328;-89
2022/11/09 00:45:49;;;;;;;;;;;;;;;13.40;65.47;99113.56;4485915;32;36949;-89
2022/11/09 00:48:14;;;;;;;;;;;;;;;13.43;65.29;99114.22;4486480;32;36574;-88
2022/11/09 00:50:39;;;;;;;;;;;;;;;13.33;65.69;99121.03;4487421;32;19989;-89
2022/11/09 00:53:05;;;;;;;;;;;;;;;13.26;65.76;99117.87;4487600;32;19976;-88
2022/11/09 00:55:30;;;;;;;;;;;;;;;13.30;65.61;99106.19;4487348;32;20011;-89
2022/11/09 00:57:55;;;;;;;;;;;;;;;13.17;66.03;99114.00;4472326;32;32715;-90
2022/11/09 01:00:22;;;;;;;;;;;;;;;13.21;66.04;99114.63;4487296;32;20023;-88
2022/11/09 01:02:51;;;;;;;;;;;;;;;13.20;65.94;99115.59;4487371;32;19984;-88
2022/11/09 01:05:16;;;;;;;;;;;;;;;13.16;65.91;99120.22;4473054;32;20312;-89
2022/11/09 01:07:41;;;;;;;;;;;;;;;13.12;66.23;99117.84;4487225;32;19995;-89
2022/11/09 01:10:07;;;;;;;;;;;;;;;13.11;66.30;99114.34;4472868;32;20028;-90
2022/11/09 01:12:32;;;;;;;;;;;;;;;13.11;66.25;99116.97;4473031;32;20341;-89
2022/11/09 01:14:57;;;;;;;;;;;;;;;13.15;66.16;99113.22;4486223;32;35379;-88
2022/11/09 01:17:23;;;;;;;;;;;;;;;13.16;66.09;99112.28;4487220;32;20008;-89
2022/11/09 01:19:48;;;;;;;;;;;;;;;13.12;66.28;99113.41;4487145;32;19980;-89
2022/11/09 01:22:13;;;;;;;;;;;;;;;13.09;66.22;99110.94;4472848;32;19994;-87
2022/11/09 01:24:39;;;;;;;;;;;;;;;13.06;66.37;99110.28;4487180;32;19976;-91
2022/11/09 01:27:04;;;;;;;;;;;;;;;12.97;66.67;99098.44;4486206;32;35823;-91
2022/11/09 01:29:29;;;;;;;;;;;;;;;13.06;66.43;99107.66;4486599;32;22136;-92
2022/11/09 01:31:54;;;;;;;;;;;;;;;13.11;66.25;99097.62;4487089;32;19972;-91
2022/11/09 01:34:20;;;;;;;;;;;;;;;13.04;66.26;99102.44;4472729;32;19991;-90
2022/11/09 01:36:45;;;;;;;;;;;;;;;12.87;66.89;99094.66;4486227;32;21408;-90
2022/11/09 01:39:10;;;;;;;;;;;;;;;12.97;66.59;99094.00;4486051;32;34398;-89
2022/11/09 01:41:35;;;;;;;;;;;;;;;12.98;66.56;99094.87;4486949;32;19991;-90
2022/11/09 01:44:17;;;;;;;;;;;;;;;12.99;66.50;99091.28;4486931;32;20362;-91
2022/11/09 01:46:45;;;;;;;;;;;;;;;12.87;66.54;99094.66;4472491;32;20392;-90
2022/11/09 01:49:32;;;;;;;;;;;;;;;12.86;66.67;99085.84;4472466;32;20032;-90
2022/11/09 01:51:59;;;;;;;;;;;;;;;12.93;66.38;99089.84;4472728;32;20006;-90
2022/11/09 01:54:28;;;;;;;;;;;;;;;12.95;66.36;99081.81;4486830;32;19978;-90
2022/11/09 01:56:54;;;;;;;;;;;;;;;12.93;66.28;99086.34;4472448;32;19984;-89
2022/11/09 01:59:21;;;;;;;;;;;;;;;12.87;66.44;99081.44;4488070;32;19976;-91
2022/11/09 02:01:46;;;;;;;;;;;;;;;12.89;66.48;99082.19;4488664;32;20048;-90
2022/11/09 02:04:12;;;;;;;;;;;;;;;12.84;66.55;99082.44;4488513;32;19986;-89
2022/11/09 02:06:37;;;;;;;;;;;;;;;12.84;66.56;99079.81;4461340;32;19998;-89
2022/11/09 02:09:11;;;;;;;;;;;;;;;12.69;66.86;99081.59;4487693;32;36925;-90
2022/11/09 02:11:37;;;;;;;;;;;;;;;12.81;66.78;99073.88;4488576;32;19976;-91
2022/11/09 02:14:02;;;;;;;;;;;;;;;12.82;66.66;99068.47;4474196;32;20271;-91
2022/11/09 02:16:27;;;;;;;;;;;;;;;12.86;66.43;99071.78;4474050;32;19980;-90
2022/11/09 02:18:53;;;;;;;;;;;;;;;12.82;66.52;99068.47;4474107;32;20264;-91
2022/11/09 02:21:19;;;;;;;;;;;;;;;12.89;66.18;99072.47;4474316;32;19998;-90
2022/11/09 02:23:44;;;;;;;;;;;;;;;12.81;66.49;99068.59;4474189;32;19992;-90
2022/11/09 02:26:11;;;;;;;;;;;;;;;12.82;66.43;99068.47;4461279;32;19994;-91
2022/11/09 02:28:36;;;;;;;;;;;;;;;12.82;66.40;99067.62;4474159;32;19984;-92
2022/11/09 02:31:01;;;;;;;;;;;;;;;12.84;66.23;99061.28;4474159;32;19990;-92
2022/11/09 02:33:26;;;;;;;;;;;;;;;12.82;66.21;99060.53;4474046;32;20020;-91
2022/11/09 02:35:52;;;;;;;;;;;;;;;12.71;66.45;99058.56;4487444;32;27668;-91
2022/11/09 02:38:17;;;;;;;;;;;;;;;12.78;66.13;99059.88;4474066;32;19988;-89
2022/11/09 02:40:43;;;;;;;;;;;;;;;12.82;66.14;99057.06;4488013;32;19988;-89
2022/11/09 02:43:09;;;;;;;;;;;;;;;12.81;65.95;99064.16;4488324;32;19975;-88
2022/11/09 02:45:34;;;;;;;;;;;;;;;12.79;66.05;99061.59;4473978;32;20221;-89
2022/11/09 02:47:59;;;;;;;;;;;;;;;12.82;65.89;99067.62;4487475;32;31812;-89
2022/11/09 02:50:25;;;;;;;;;;;;;;;12.78;65.76;99069.59;4487833;32;19995;-89
2022/11/09 02:52:50;;;;;;;;;;;;;;;12.75;65.87;99068.00;4488272;32;19971;-89
2022/11/09 02:55:15;;;;;;;;;;;;;;;12.78;65.74;99059.88;4473753;32;20104;-88
2022/11/09 02:57:41;;;;;;;;;;;;;;;12.73;65.86;99063.75;4488066;32;20025;-90
2022/11/09 03:00:06;;;;;;;;;;;;;;;12.54;66.47;99063.97;4487480;32;30588;-92
2022/11/09 03:02:31;;;;;;;;;;;;;;;12.54;66.25;99063.97;4473927;32;19976;-92
2022/11/09 03:04:57;;;;;;;;;;;;;;;12.56;66.26;99057.66;4487452;32;31130;-91
2022/11/09 03:07:22;;;;;;;;;;;;;;;12.66;66.11;99059.75;4487886;32;19999;-92
2022/11/09 03:09:47;;;;;;;;;;;;;;;12.71;66.01;99060.31;4487913;32;20240;-91
2022/11/09 03:12:28;;;;;;;;;;;;;;;12.71;65.82;99069.13;4488195;32;19982;-93
2022/11/09 03:14:53;;;;;;;;;;;;;;;12.75;65.70;99068.00;4488064;32;19986;-93
2022/11/09 03:17:18;;;;;;;;;;;;;;;12.75;65.69;99070.63;4487969;32;19987;-93
2022/11/09 03:19:43;;;;;;;;;;;;;;;12.68;65.83;99068.44;4488036;32;19971;-92
2022/11/09 03:22:09;;;;;;;;;;;;;;;12.32;66.85;99065.22;4488015;32;20006;-93
2022/11/09 03:24:34;;;;;;;;;;;;;;;12.54;66.22;99067.47;4487934;32;19976;-92
2022/11/09 03:26:59;;;;;;;;;;;;;;;12.65;65.88;99074.78;4487912;32;19990;-92
2022/11/09 03:29:25;;;;;;;;;;;;;;;12.67;65.85;99064.09;4488028;32;20319;-92
2022/11/09 03:31:50;;;;;;;;;;;;;;;12.69;65.68;99073.66;4472874;32;32393;-92
2022/11/09 03:34:15;;;;;;;;;;;;;;;12.72;65.55;99067.31;4487013;32;37618;-92
2022/11/09 03:36:40;;;;;;;;;;;;;;;12.65;65.56;99052.75;4487845;32;20011;-94
2022/11/09 03:39:06;;;;;;;;;;;;;;;12.65;65.53;99063.31;4487884;32;19983;-93
2022/11/09 03:41:31;;;;;;;;;;;;;;;12.64;65.56;99062.50;4488020;32;20045;-92
2022/11/09 03:43:56;;;;;;;;;;;;;;;12.69;65.35;99072.78;4487816;32;19972;-90
2022/11/09 03:46:21;;;;;;;;;;;;;;;12.65;65.56;99079.19;4487188;32;32812;-88
2022/11/09 03:48:46;;;;;;;;;;;;;;;12.60;65.70;99071.53;4487577;32;19968;-89
2022/11/09 03:51:12;;;;;;;;;;;;;;;12.62;65.79;99072.31;4473586;32;19990;-89
2022/11/09 03:53:37;;;;;;;;;;;;;;;12.64;65.64;99064.28;4473536;32;20357;-89
2022/11/09 03:56:02;;;;;;;;;;;;;;;12.67;65.57;99061.44;4486827;32;35444;-89
2022/11/09 03:58:27;;;;;;;;;;;;;;;12.68;65.52;99069.28;4486977;32;36685;-88
2022/11/09 04:00:52;;;;;;;;;;;;;;;12.70;65.30;99061.28;4486995;32;31901;-89
2022/11/09 04:03:18;;;;;;;;;;;;;;;12.66;65.49;99054.47;4472807;32;28384;-88
2022/11/09 04:05:43;;;;;;;;;;;;;;;12.63;65.61;99058.13;4487777;32;20010;-87
2022/11/09 04:08:08;;;;;;;;;;;;;;;12.66;65.57;99050.03;4487819;32;19977;-88
2022/11/09 04:10:33;;;;;;;;;;;;;;;12.63;65.61;99049.34;4486812;32;32766;-88
2022/11/09 04:12:58;;;;;;;;;;;;;;;12.54;65.84;99045.47;4486771;32;34089;-88
2022/11/09 04:15:24;;;;;;;;;;;;;;;12.55;65.97;99050.66;4486707;32;37250;-88
2022/11/09 04:17:56;;;;;;;;;;;;;;;12.50;65.98;99044.81;4487693;32;19972;-87
2022/11/09 04:20:21;;;;;;;;;;;;;;;12.57;65.77;99046.16;4486961;32;20779;-85
2022/11/09 04:22:52;;;;;;;;;;;;;;;12.54;65.84;99051.59;4487443;32;19964;-94
2022/11/09 04:25:17;;;;;;;;;;;;;;;12.56;65.80;99040.94;4473588;32;20033;-88
2022/11/09 04:27:42;;;;;;;;;;;;;;;12.55;65.82;99048.00;4487625;32;19972;-87
2022/11/09 04:30:08;;;;;;;;;;;;;;;12.52;65.99;99045.56;4487725;32;19972;-90
2022/11/09 04:32:33;;;;;;;;;;;;;;;12.49;66.05;99043.09;4473179;32;19995;-87
2022/11/09 04:34:59;;;;;;;;;;;;;;;12.54;65.87;99038.41;4487135;32;20910;-87
2022/11/09 04:37:24;;;;;;;;;;;;;;;12.55;65.83;99032.16;4487428;32;19976;-88
2022/11/09 04:39:50;;;;;;;;;;;;;;;12.50;65.99;99036.03;4486620;32;34597;-88
2022/11/09 04:42:15;;;;;;;;;;;;;;;12.51;66.07;99037.72;4487003;32;23192;-87
2022/11/09 04:44:40;;;;;;;;;;;;;;;12.53;66.16;99041.13;4487312;32;19972;-87
2022/11/09 04:47:05;;;;;;;;;;;;;;;12.54;66.08;99034.91;4487449;32;19988;-87
2022/11/09 04:49:30;;;;;;;;;;;;;;;12.58;66.08;99044.34;4486774;32;27018;-87
2022/11/09 04:51:56;;;;;;;;;;;;;;;12.60;65.83;99050.41;4472439;32;29195;-88
2022/11/09 04:54:21;;;;;;;;;;;;;;;12.56;66.04;99048.87;4486686;32;30133;-90
2022/11/09 04:56:46;;;;;;;;;;;;;;;12.60;66.00;99047.75;4486600;32;31474;-89
2022/11/09 04:59:11;;;;;;;;;;;;;;;12.64;65.82;99049.28;4473069;32;19971;-90
2022/11/09 05:01:37;;;;;;;;;;;;;;;12.68;65.78;99048.16;4487398;32;19967;-89
2022/11/09 05:04:02;;;;;;;;;;;;;;;12.72;65.66;99057.59;4487486;32;20311;-89
2022/11/09 05:06:30;;;;;;;;;;;;;;;12.63;65.87;99047.56;4473138;32;20062;-94
2022/11/09 05:08:55;;;;;;;;;;;;;;;12.68;65.56;99045.50;4487453;32;20028;-88
2022/11/09 05:11:21;;;;;;;;;;;;;;;12.69;65.43;99051.62;4487193;32;20339;-83
2022/11/09 05:13:46;;;;;;;;;;;;;;;12.65;65.56;99048.34;4483170;31;20044;-83
2022/11/09 05:16:12;;;;;;;;;;;;;;;12.63;65.57;99044.91;4491088;31;19987;-84
2022/11/09 05:18:37;;;;;;;;;;;;;;;12.59;65.65;99040.75;4501840;31;19964;-84
2022/11/09 05:21:02;;;;;;;;;;;;;;;12.60;65.71;99047.75;4501805;31;19967;-83
2022/11/09 05:26:12;;;;;;;;;;;;;;;12.54;65.99;99046.31;4486993;32;20005;-82
2022/11/09 05:28:37;;;;;;;;;;;;;;;12.52;66.04;99042.91;4486516;32;19987;-85
2022/11/09 05:31:02;;;;;;;;;;;;;;;12.54;65.97;99042.84;4486913;31;19978;-84
2022/11/09 05:33:33;;;;;;;;;;;;;;;12.54;66.02;99043.69;4487424;31;36288;-87
2022/11/09 05:35:59;;;;;;;;;;;;;;;12.55;65.99;99050.66;4502693;31;19983;-88
2022/11/09 05:38:24;;;;;;;;;;;;;;;12.51;66.10;99053.56;4502930;31;20012;-89
2022/11/09 05:40:49;;;;;;;;;;;;;;;12.55;65.87;99047.16;4502756;31;19964;-87
2022/11/09 05:43:15;;;;;;;;;;;;;;;12.48;66.08;99045.84;4502627;31;20001;-87
2022/11/09 05:45:40;;;;;;;;;;;;;;;12.48;66.15;99046.69;4488271;31;20002;-90
2022/11/09 05:48:06;;;;;;;;;;;;;;;12.49;66.17;99050.16;4488338;31;20239;-88
2022/11/09 05:50:31;;;;;;;;;;;;;;;12.37;66.50;99055.22;4488153;31;20011;-88
2022/11/09 05:52:59;;;;;;;;;;;;;;;12.37;66.61;99060.50;4487563;31;30388;-89
2022/11/09 05:55:25;;;;;;;;;;;;;;;12.37;66.52;99060.50;4502375;31;19983;-89
2022/11/09 05:57:50;;;;;;;;;;;;;;;12.36;66.45;99060.59;4488034;31;20264;-89
2022/11/09 06:00:15;;;;;;;;;;;;;;;12.33;66.81;99074.00;4501528;31;34691;-89
2022/11/09 06:02:40;;;;;;;;;;;;;;;12.31;66.86;99071.44;4502297;31;20055;-90
2022/11/09 06:05:06;;;;;;;;;;;;;;;12.35;66.93;99072.94;4501713;31;27574;-89
2022/11/09 06:07:31;;;;;;;;;;;;;;;12.36;66.94;99071.16;4502289;31;20059;-89
2022/11/09 06:09:56;;;;;;;;;;;;;;;12.41;66.81;99063.81;4502432;31;19979;-89
2022/11/09 06:12:22;;;;;;;;;;;;;;;12.43;66.78;99063.75;4502310;31;19987;-89
2022/11/09 06:14:47;;;;;;;;;;;;;;;12.43;66.64;99069.03;4501563;31;27462;-87
2022/11/09 06:17:12;;;;;;;;;;;;;;;12.45;66.54;99067.16;4486975;31;32395;-88
2022/11/09 06:19:37;;;;;;;;;;;;;;;12.39;66.72;99074.47;4473744;31;20010;-86
2022/11/09 06:22:02;;;;;;;;;;;;;;;12.43;66.64;99061.94;4492728;31;33807;-88
2022/11/09 06:24:28;;;;;;;;;;;;;;;12.49;66.56;99071.31;4476453;31;24277;-86
2022/11/09 06:26:53;;;;;;;;;;;;;;;12.45;66.54;99069.78;4489575;31;19976;-87
2022/11/09 06:29:18;;;;;;;;;;;;;;;12.50;66.29;99067.75;4483309;31;19983;-84
2022/11/09 06:31:44;;;;;;;;;;;;;;;12.50;66.45;99076.50;4495960;31;20028;-88
2022/11/09 06:34:10;;;;;;;;;;;;;;;12.51;66.54;99078.19;4475887;31;20005;-87
2022/11/09 06:36:35;;;;;;;;;;;;;;;12.50;66.49;99078.31;4490593;31;20371;-84
2022/11/09 06:39:00;;;;;;;;;;;;;;;12.54;66.19;99082.47;4493908;31;20140;-86
2022/11/09 06:41:26;;;;;;;;;;;;;;;12.49;66.35;99074.78;4486549;31;19994;-89
2022/11/09 06:43:51;;;;;;;;;;;;;;;12.53;66.01;99078.13;4467391;32;34370;-85
2022/11/09 06:46:16;;;;;;;;;;;;;;;12.45;66.32;99078.56;4492062;31;34179;-88
2022/11/09 06:48:42;;;;;;;;;;;;;;;12.44;66.45;99081.28;4488738;31;31772;-88
2022/11/09 06:51:07;;;;;;;;;;;;;;;12.45;66.31;99075.06;4504116;31;19979;-87
2022/11/09 06:53:33;;;;;;;;;;;;;;;12.42;66.26;99086.69;4504063;31;20019;-87
2022/11/09 06:55:59;;;;;;;;;;;;;;;12.42;66.18;99083.16;4503250;31;19967;-89
2022/11/09 06:58:24;;;;;;;;;;;;;;;12.41;66.22;99081.47;4488504;31;19982;-92
2022/11/09 07:00:50;;;;;;;;;;;;;;;12.34;66.35;99079.19;4503998;31;20319;-85
2022/11/09 07:03:16;;;;;;;;;;;;;;;12.22;66.56;99085.16;4503895;31;19979;-85
2022/11/09 07:05:41;;;;;;;;;;;;;;;12.34;66.34;99083.59;4503908;31;20338;-86
2022/11/09 07:08:06;;;;;;;;;;;;;;;12.34;66.48;99079.19;4503905;31;19976;-82
2022/11/09 07:10:31;;;;;;;;;;;;;;;12.35;66.35;99080.03;4503010;31;36318;-81
2022/11/09 07:12:57;;;;;;;;;;;;;;;12.39;66.29;99078.91;4489190;31;20058;-86
2022/11/09 07:15:22;;;;;;;;;;;;;;;12.42;66.11;99084.03;4503827;31;19978;-82
2022/11/09 07:17:47;;;;;;;;;;;;;;;12.38;66.25;99087.75;4488634;31;33331;-84
2022/11/09 07:20:13;;;;;;;;;;;;;;;12.42;65.99;99083.16;4503686;31;20295;-81
2022/11/09 07:22:39;;;;;;;;;;;;;;;12.45;66.03;99072.44;4489638;31;20330;-82
2022/11/09 07:25:08;;;;;;;;;;;;;;;12.46;65.94;99084.69;4489424;31;20336;-81
2022/11/09 07:27:33;;;;;;;;;;;;;;;12.51;65.75;99080.84;4503652;31;19967;-86
2022/11/09 07:29:58;;;;;;;;;;;;;;;12.31;66.06;99076.72;4488745;31;19991;-80
2022/11/09 07:32:24;;;;;;;;;;;;;;;12.37;66.16;99081.63;4493000;31;35252;-82
2022/11/09 07:34:49;;;;;;;;;;;;;;;12.50;65.87;99083.59;4486247;31;27863;-83
2022/11/09 07:37:14;;;;;;;;;;;;;;;12.54;65.60;99074.53;4495173;31;19982;-82
2022/11/09 07:39:39;;;;;;;;;;;;;;;12.55;65.35;99073.59;4462778;32;20003;-81
2022/11/09 07:42:04;;;;;;;;;;;;;;;12.55;65.45;99073.59;4498006;31;28031;-80
2022/11/09 07:44:30;;;;;;;;;;;;;;;12.57;65.29;99077.88;4488172;31;20038;-80
2022/11/09 07:46:55;;;;;;;;;;;;;;;12.58;65.11;99068.97;4500583;31;20028;-80
2022/11/09 07:49:20;;;;;;;;;;;;;;;12.64;64.99;99080.16;4492485;31;20037;-79
2022/11/09 07:51:45;;;;;;;;;;;;;;;12.56;65.16;99073.50;4495240;31;19997;-81
2022/11/09 07:54:11;;;;;;;;;;;;;;;12.55;65.35;99070.94;4473212;31;20348;-80
2022/11/09 07:56:36;;;;;;;;;;;;;;;12.56;65.20;99078.78;4496410;31;19976;-82
2022/11/09 07:59:02;;;;;;;;;;;;;;;12.63;65.07;99076.63;4476652;31;20010;-82
2022/11/09 08:01:27;;;;;;;;;;;;;;;12.68;65.21;99082.50;4477877;32;20022;-81
2022/11/09 08:03:52;;;;;;;;;;;;;;;12.76;64.80;99080.25;4480930;31;19986;-81
2022/11/09 08:06:18;;;;;;;;;;;;;;;12.78;64.91;99075.72;4460698;32;19972;-82
2022/11/09 08:08:43;;;;;;;;;;;;;;;12.80;64.91;99078.28;4473524;32;20341;-83
2022/11/09 08:11:08;;;;;;;;;;;;;;;12.88;64.59;99068.09;4487691;32;19968;-82
2022/11/09 08:13:33;;;;;;;;;;;;;;;12.93;64.78;99070.50;4491126;31;19967;-83
2022/11/09 08:16:01;;;;;;;;;;;;;;;13.01;64.42;99062.94;4503170;31;20308;-84
2022/11/09 08:18:27;;;;;;;;;;;;;;;13.03;64.38;99068.16;4503396;31;19984;-85
2022/11/09 08:20:52;;;;;;;;;;;;;;;12.99;64.47;99065.66;4488624;31;20259;-85
2022/11/09 08:23:18;;;;;;;;;;;;;;;13.03;64.12;99063.69;4503486;31;20329;-85
2022/11/09 08:25:43;;;;;;;;;;;;;;;13.02;64.32;99062.00;4489041;31;19959;-85
2022/11/09 08:28:09;;;;;;;;;;;;;;;12.99;64.37;99063.03;4503365;31;19987;-85
2022/11/09 08:30:34;;;;;;;;;;;;;;;12.99;64.47;99064.81;4489172;31;19979;-84
2022/11/09 08:33:00;;;;;;;;;;;;;;;12.94;64.62;99065.13;4488988;31;19990;-85
2022/11/09 08:35:25;;;;;;;;;;;;;;;12.98;64.52;99058.69;4503003;31;20013;-85
2022/11/09 08:37:51;;;;;;;;;;;;;;;12.99;64.74;99063.03;4503265;31;20278;-85
2022/11/09 08:40:18;;;;;;;;;;;;;;;12.99;64.74;99065.66;4503354;31;19998;-85
2022/11/09 08:42:43;;;;;;;;;;;;;;;13.00;64.87;99063.91;4488935;31;20010;-85
2022/11/09 08:45:09;;;;;;;;;;;;;;;13.05;64.79;99061.81;4503191;31;19967;-85
2022/11/09 08:47:34;;;;;;;;;;;;;;;13.03;64.90;99054.91;4503156;31;20327;-85
2022/11/09 08:49:59;;;;;;;;;;;;;;;13.05;64.86;99053.88;4503167;31;20016;-86
2022/11/09 08:52:25;;;;;;;;;;;;;;;13.08;64.87;99060.78;4488738;31;19976;-85
2022/11/09 08:54:50;;;;;;;;;;;;;;;13.04;65.01;99064.53;4503042;31;19998;-85
2022/11/09 08:57:18;;;;;;;;;;;;;;;13.02;65.02;99059.38;4503026;31;20028;-85
2022/11/09 08:59:44;;;;;;;;;;;;;;;13.01;65.16;99065.59;4488708;31;19991;-84
2022/11/09 09:02:10;;;;;;;;;;;;;;;13.07;65.12;99061.72;4503008;31;19990;-85
2022/11/09 09:04:35;;;;;;;;;;;;;;;13.05;65.19;99066.25;4502970;31;20011;-84
2022/11/09 09:07:01;;;;;;;;;;;;;;;13.15;64.91;99062.97;4502649;31;20028;-85
2022/11/09 09:09:26;;;;;;;;;;;;;;;13.17;64.94;99066.38;4488892;31;19979;-85
2022/11/09 09:11:51;;;;;;;;;;;;;;;13.23;64.82;99062.50;4503156;31;20019;-84
2022/11/09 09:14:16;;;;;;;;;;;;;;;13.23;64.71;99067.81;4503190;31;20295;-85
2022/11/09 09:16:42;;;;;;;;;;;;;;;13.21;64.75;99061.72;4502913;31;19991;-84
2022/11/09 09:19:07;;;;;;;;;;;;;;;13.19;64.91;99063.63;4488796;31;20016;-85
2022/11/09 09:21:32;;;;;;;;;;;;;;;13.22;64.92;99062.59;4503098;31;20212;-85
2022/11/09 09:23:57;;;;;;;;;;;;;;;13.25;64.94;99067.69;4488771;31;20024;-84
2022/11/09 09:26:23;;;;;;;;;;;;;;;13.25;64.87;99071.19;4502702;31;19976;-84
2022/11/09 09:28:49;;;;;;;;;;;;;;;13.25;65.13;99072.97;4502975;31;19989;-84
2022/11/09 09:31:14;;;;;;;;;;;;;;;13.25;65.11;99070.31;4488598;31;19979;-84
2022/11/09 09:33:40;;;;;;;;;;;;;;;13.33;64.97;99068.97;4488195;31;20276;-85
2022/11/09 09:36:05;;;;;;;;;;;;;;;13.37;64.95;99069.63;4502606;31;19971;-85
2022/11/09 09:38:30;;;;;;;;;;;;;;;13.43;64.60;99065.75;4502624;31;19990;-84
2022/11/09 09:40:55;;;;;;;;;;;;;;;13.39;64.74;99059.78;4502580;31;20016;-85
2022/11/09 09:43:31;;;;;;;;;;;;;;;13.36;65.05;99059.97;4502727;31;20341;-84
2022/11/09 09:45:57;;;;;;;;;;;;;;;13.41;64.94;99054.41;4488532;31;19979;-84
2022/11/09 09:48:22;;;;;;;;;;;;;;;13.41;65.09;99060.56;4488359;31;20347;-84
2022/11/09 09:50:48;;;;;;;;;;;;;;;13.46;64.95;99060.25;4502544;31;20013;-84
2022/11/09 09:53:15;;;;;;;;;;;;;;;13.52;64.72;99047.50;4502570;31;20020;-84
2022/11/09 09:55:41;;;;;;;;;;;;;;;13.52;64.79;99044.84;4488104;31;20274;-85
2022/11/09 09:58:17;;;;;;;;;;;;;;;13.55;64.77;99049.09;4502470;31;19975;-86
2022/11/09 10:00:43;;;;;;;;;;;;;;;13.60;64.67;99041.72;4488206;31;19975;-84
2022/11/09 10:03:13;;;;;;;;;;;;;;;13.60;64.39;99038.22;4474808;31;19980;-85
2022/11/09 10:05:58;;;;;;;;;;;;;;;13.65;64.20;99041.44;4488120;31;19979;-84
2022/11/09 10:08:26;;;;;;;;;;;;;;;13.56;64.66;99037.56;4502078;31;20271;-85
2022/11/09 10:10:58;;;;;;;;;;;;;;;13.59;64.80;99031.22;4488274;31;19994;-85
2022/11/09 10:13:26;;;;;;;;;;;;;;;13.57;64.74;99031.31;4502220;31;19989;-85
2022/11/09 10:16:03;;;;;;;;;;;;;;;13.64;64.51;99034.44;4502275;31;19994;-85
2022/11/09 10:18:28;;;;;;;;;;;;;;;13.60;64.70;99033.78;4502243;31;19987;-85
2022/11/09 10:21:02;;;;;;;;;;;;;;;13.68;64.46;99034.16;4504331;31;20254;-85
2022/11/09 10:23:42;;;;;;;;;;;;;;;13.67;64.43;99023.66;4504420;31;19975;-84
2022/11/09 10:26:18;;;;;;;;;;;;;;;13.66;64.53;99025.44;4504297;31;19980;-84
2022/11/09 10:28:44;;;;;;;;;;;;;;;13.67;64.67;99029.78;4504266;31;19979;-85
2022/11/09 10:31:14;;;;;;;;;;;;;;;13.71;64.48;99030.44;4489887;31;20425;-85
2022/11/09 10:33:39;;;;;;;;;;;;;;;13.72;64.29;99027.72;4503960;31;19967;-84
2022/11/09 10:36:24;;;;;;;;;;;;;;;13.67;64.47;99031.59;4489522;31;19995;-85
2022/11/09 10:38:50;;;;;;;;;;;;;;;13.33;65.48;99029.28;4489928;31;20009;-84
2022/11/09 10:41:15;;;;;;;;;;;;;;;13.13;65.64;99024.31;4504298;31;19975;-84
2022/11/09 10:43:40;;;;;;;;;;;;;;;13.44;65.10;99023.28;4504217;31;19982;-84
2022/11/09 10:46:06;;;;;;;;;;;;;;;13.61;64.87;99021.41;4504104;31;19975;-84
2022/11/09 10:48:35;;;;;;;;;;;;;;;13.61;64.90;99018.75;4504100;31;20014;-84
2022/11/09 10:51:01;;;;;;;;;;;;;;;13.14;66.32;99018.94;4489731;31;19983;-85
2022/11/09 10:53:28;;;;;;;;;;;;;;;13.50;65.36;99008.81;4489736;31;20349;-84
2022/11/09 10:55:53;;;;;;;;;;;;;;;13.55;65.23;99007.59;4489680;31;19983;-84
2022/11/09 10:58:45;;;;;;;;;;;;;;;13.49;65.47;99007.16;4504077;31;20010;-84
2022/11/09 11:01:11;;;;;;;;;;;;;;;13.52;65.40;98997.22;4500198;31;19971;-85
2022/11/09 11:03:37;;;;;;;;;;;;;;;13.62;65.24;99002.78;4489688;31;19960;-85
2022/11/09 11:06:08;;;;;;;;;;;;;;;13.62;65.06;98999.25;4503999;31;19976;-85
2022/11/09 11:08:35;;;;;;;;;;;;;;;13.66;65.14;98996.34;4489675;31;20031;-85
2022/11/09 11:11:06;;;;;;;;;;;;;;;13.71;65.10;98999.53;4489665;31;20031;-84
2022/11/09 11:13:31;;;;;;;;;;;;;;;13.77;64.83;99000.91;4503999;31;19967;-84
2022/11/09 11:15:57;;;;;;;;;;;;;;;13.80;64.76;98992.78;4503847;31;20021;-85
2022/11/09 11:18:23;;;;;;;;;;;;;;;13.76;64.82;98996.59;4489457;31;19988;-85
2022/11/09 11:21:02;;;;;;;;;;;;;;;13.80;64.64;98990.16;4503807;31;20343;-84
2022/11/09 11:23:28;;;;;;;;;;;;;;;13.74;64.82;98990.53;4489363;31;19977;-84
2022/11/09 11:25:55;;;;;;;;;;;;;;;13.79;64.80;98988.47;4503815;31;19971;-84
2022/11/09 11:28:40;;;;;;;;;;;;;;;13.84;64.54;98991.66;4489354;31;19991;-84
2022/11/09 11:31:15;;;;;;;;;;;;;;;13.87;64.63;98994.09;4503630;31;19975;-84
2022/11/09 11:33:40;;;;;;;;;;;;;;;13.78;64.68;98989.41;4489547;31;19967;-85
2022/11/09 11:36:12;;;;;;;;;;;;;;;13.79;64.55;98991.12;4503472;31;20320;-84
2022/11/09 11:38:44;;;;;;;;;;;;;;;13.57;65.08;99000.41;4503809;31;19997;-84
2022/11/09 11:41:15;;;;;;;;;;;;;;;13.50;65.46;98991.16;4503786;31;20010;-84
2022/11/09 11:43:40;;;;;;;;;;;;;;;13.59;65.22;98995.00;4503713;31;19982;-85
2022/11/09 11:46:08;;;;;;;;;;;;;;;13.66;65.15;98990.19;4503758;31;19991;-86
2022/11/09 11:48:52;;;;;;;;;;;;;;;13.70;65.10;98995.19;4503656;31;19998;-85
2022/11/09 11:51:18;;;;;;;;;;;;;;;13.47;65.86;98983.41;4503607;31;19988;-85
2022/11/09 11:53:43;;;;;;;;;;;;;;;13.47;65.87;98986.06;4476189;31;20006;-84
2022/11/09 11:56:16;;;;;;;;;;;;;;;13.46;65.78;98984.38;4503607;31;19995;-84
2022/11/09 11:58:41;;;;;;;;;;;;;;;13.53;65.76;98988.31;4503636;31;20027;-85
2022/11/09 12:01:12;;;;;;;;;;;;;;;13.55;65.86;98982.94;4503628;31;19976;-84
2022/11/09 12:03:40;;;;;;;;;;;;;;;13.53;65.94;98982.19;4489220;31;19972;-85
2022/11/09 12:06:05;;;;;;;;;;;;;;;13.59;65.75;98978.28;4503596;31;20285;-85
2022/11/09 12:08:35;;;;;;;;;;;;;;;13.66;65.43;98984.91;4503476;31;20265;-84
2022/11/09 12:11:19;;;;;;;;;;;;;;;13.61;65.60;98977.22;4489201;31;20050;-84
2022/11/09 12:13:49;;;;;;;;;;;;;;;13.59;65.83;98975.66;4503452;31;19990;-84
2022/11/09 12:16:15;;;;;;;;;;;;;;;13.60;65.83;98972.03;4489084;31;20002;-84
2022/11/09 12:18:40;;;;;;;;;;;;;;;13.66;65.75;98976.97;4503401;31;19991;-84
2022/11/09 12:21:05;;;;;;;;;;;;;;;13.68;65.75;98972.41;4503358;31;19994;-85
2022/11/09 12:23:37;;;;;;;;;;;;;;;13.75;65.56;98971.03;4489011;31;20056;-85
2022/11/09 12:26:02;;;;;;;;;;;;;;;13.77;65.36;98967.38;4503475;31;19975;-85
2022/11/09 12:28:37;;;;;;;;;;;;;;;13.73;65.56;98965.00;4503444;31;20019;-85
2022/11/09 12:31:06;;;;;;;;;;;;;;;13.70;65.58;98973.16;4489083;31;20345;-85
2022/11/09 12:33:31;;;;;;;;;;;;;;;13.73;65.51;98965.88;4488969;31;19979;-85
2022/11/09 12:35:58;;;;;;;;;;;;;;;13.73;65.34;98965.00;4488815;31;20345;-84
2022/11/09 12:38:25;;;;;;;;;;;;;;;13.71;65.45;98967.78;4489102;31;20058;-85
2022/11/09 12:40:55;;;;;;;;;;;;;;;13.69;65.47;98967.00;4475826;31;19980;-85
2022/11/09 12:43:21;;;;;;;;;;;;;;;13.69;65.43;98960.84;4488260;31;19986;-86
2022/11/09 12:45:47;;;;;;;;;;;;;;;13.70;65.41;98965.22;4489027;31;20028;-85
2022/11/09 12:48:15;;;;;;;;;;;;;;;13.66;65.43;98955.78;4488849;31;19988;-85